sensor_id;sensor_type;location;lat;lon;timestamp;P1;durP1;ratioP1;P2;durP2;ratioP2
75005;SDS011;63553;51.814;4.600;2023-02-12T00:02:04;2.33;;;2.00;;
75005;SDS011;63553;51.814;4.600;2023-02-12T00:04:29;1.98;;;1.83;;
75005;SDS011;63553;51.814;4.600;2023-02-12T00:06:54;2.80;;;1.80;;
75005;SDS011;63553;51.814;4.600;2023-02-12T00:09:20;2.33;;;1.60;;
75005;SDS011;63553;51.814;4.600;2023-02-12T00:11:45;1.80;;;1.70;;
75005;SDS011;63553;51.814;4.600;2023-02-12T00:14:11;1.80;;;1.70;;
75005;SDS011;63553;51.814;4.600;2023-02-12T00:16:36;1.93;;;1.83;;
75005;SDS011;63553;51.814;4.600;2023-02-12T00:19:01;2.20;;;1.83;;
75005;SDS011;63553;51.814;4.600;2023-02-12T00:21:27;2.00;;;1.80;;
75005;SDS011;63553;51.814;4.600;2023-02-12T00:23:52;2.08;;;1.70;;
75005;SDS011;63553;51.814;4.600;2023-02-12T00:26:18;2.38;;;1.88;;
75005;SDS011;63553;51.814;4.600;2023-02-12T00:28:45;1.73;;;1.63;;
75005;SDS011;63553;51.814;4.600;2023-02-12T00:31:12;2.00;;;1.85;;
75005;SDS011;63553;51.814;4.600;2023-02-12T00:33:39;1.83;;;1.73;;
75005;SDS011;63553;51.814;4.600;2023-02-12T00:36:05;1.75;;;1.65;;
75005;SDS011;63553;51.814;4.600;2023-02-12T00:38:31;2.08;;;1.70;;
75005;SDS011;63553;51.814;4.600;2023-02-12T00:40:56;1.75;;;1.65;;
75005;SDS011;63553;51.814;4.600;2023-02-12T00:43:22;1.63;;;1.53;;
75005;SDS011;63553;51.814;4.600;2023-02-12T00:45:47;2.10;;;1.80;;
75005;SDS011;63553;51.814;4.600;2023-02-12T00:48:13;1.63;;;1.52;;
75005;SDS011;63553;51.814;4.600;2023-02-12T00:50:39;1.80;;;1.70;;
75005;SDS011;63553;51.814;4.600;2023-02-12T00:53:07;1.63;;;1.52;;
75005;SDS011;63553;51.814;4.600;2023-02-12T00:55:33;2.13;;;1.60;;
75005;SDS011;63553;51.814;4.600;2023-02-12T00:57:59;2.42;;;1.80;;
75005;SDS011;63553;51.814;4.600;2023-02-12T01:00:24;1.83;;;1.70;;
75005;SDS011;63553;51.814;4.600;2023-02-12T01:02:50;1.60;;;1.50;;
75005;SDS011;63553;51.814;4.600;2023-02-12T01:05:16;2.00;;;1.90;;
75005;SDS011;63553;51.814;4.600;2023-02-12T01:07:41;1.70;;;1.60;;
75005;SDS011;63553;51.814;4.600;2023-02-12T01:10:08;1.70;;;1.60;;
75005;SDS011;63553;51.814;4.600;2023-02-12T01:12:33;2.20;;;1.90;;
75005;SDS011;63553;51.814;4.600;2023-02-12T01:14:59;2.38;;;1.95;;
75005;SDS011;63553;51.814;4.600;2023-02-12T01:17:24;2.17;;;1.80;;
75005;SDS011;63553;51.814;4.600;2023-02-12T01:19:50;2.10;;;1.90;;
75005;SDS011;63553;51.814;4.600;2023-02-12T01:22:15;1.70;;;1.60;;
75005;SDS011;63553;51.814;4.600;2023-02-12T01:24:41;1.63;;;1.48;;
75005;SDS011;63553;51.814;4.600;2023-02-12T01:27:06;1.87;;;1.77;;
75005;SDS011;63553;51.814;4.600;2023-02-12T01:29:31;2.20;;;2.00;;
75005;SDS011;63553;51.814;4.600;2023-02-12T01:31:57;2.22;;;1.70;;
75005;SDS011;63553;51.814;4.600;2023-02-12T01:34:22;1.60;;;1.50;;
75005;SDS011;63553;51.814;4.600;2023-02-12T01:36:48;2.27;;;1.80;;
75005;SDS011;63553;51.814;4.600;2023-02-12T01:39:13;1.75;;;1.65;;
75005;SDS011;63553;51.814;4.600;2023-02-12T01:41:40;2.47;;;1.80;;
75005;SDS011;63553;51.814;4.600;2023-02-12T01:44:15;1.60;;;1.50;;
75005;SDS011;63553;51.814;4.600;2023-02-12T01:46:53;1.92;;;1.73;;
75005;SDS011;63553;51.814;4.600;2023-02-12T01:49:25;2.22;;;1.77;;
75005;SDS011;63553;51.814;4.600;2023-02-12T01:54:37;1.83;;;1.73;;
75005;SDS011;63553;51.814;4.600;2023-02-12T01:57:03;1.60;;;1.50;;
75005;SDS011;63553;51.814;4.600;2023-02-12T01:59:30;1.88;;;1.77;;
75005;SDS011;63553;51.814;4.600;2023-02-12T02:01:57;1.70;;;1.60;;
75005;SDS011;63553;51.814;4.600;2023-02-12T02:04:24;1.80;;;1.70;;
75005;SDS011;63553;51.814;4.600;2023-02-12T02:06:57;1.52;;;1.42;;
75005;SDS011;63553;51.814;4.600;2023-02-12T02:09:25;1.73;;;1.60;;
75005;SDS011;63553;51.814;4.600;2023-02-12T02:11:52;1.70;;;1.60;;
75005;SDS011;63553;51.814;4.600;2023-02-12T02:14:36;1.73;;;1.63;;
75005;SDS011;63553;51.814;4.600;2023-02-12T02:17:15;1.75;;;1.65;;
75005;SDS011;63553;51.814;4.600;2023-02-12T02:32:58;1.67;;;1.58;;
75005;SDS011;63553;51.814;4.600;2023-02-12T02:35:52;1.70;;;1.60;;
75005;SDS011;63553;51.814;4.600;2023-02-12T02:38:30;1.48;;;1.38;;
75005;SDS011;63553;51.814;4.600;2023-02-12T02:41:10;1.42;;;1.42;;
75005;SDS011;63553;51.814;4.600;2023-02-12T02:43:48;1.70;;;1.60;;
75005;SDS011;63553;51.814;4.600;2023-02-12T02:46:25;1.50;;;1.40;;
75005;SDS011;63553;51.814;4.600;2023-02-12T02:48:59;1.70;;;1.60;;
75005;SDS011;63553;51.814;4.600;2023-02-12T02:51:32;3.03;;;1.70;;
75005;SDS011;63553;51.814;4.600;2023-02-12T02:54:05;1.50;;;1.40;;
75005;SDS011;63553;51.814;4.600;2023-02-12T02:56:36;1.50;;;1.40;;
75005;SDS011;63553;51.814;4.600;2023-02-12T02:59:27;1.80;;;1.70;;
75005;SDS011;63553;51.814;4.600;2023-02-12T03:02:05;1.23;;;1.23;;
75005;SDS011;63553;51.814;4.600;2023-02-12T03:04:43;1.23;;;1.20;;
75005;SDS011;63553;51.814;4.600;2023-02-12T03:07:13;1.50;;;1.40;;
75005;SDS011;63553;51.814;4.600;2023-02-12T03:09:53;1.50;;;1.40;;
75005;SDS011;63553;51.814;4.600;2023-02-12T03:14:53;1.48;;;1.38;;
75005;SDS011;63553;51.814;4.600;2023-02-12T03:17:36;1.40;;;1.30;;
75005;SDS011;63553;51.814;4.600;2023-02-12T03:20:08;2.10;;;1.90;;
75005;SDS011;63553;51.814;4.600;2023-02-12T03:22:38;1.55;;;1.45;;
75005;SDS011;63553;51.814;4.600;2023-02-12T03:27:39;1.40;;;1.30;;
75005;SDS011;63553;51.814;4.600;2023-02-12T03:30:08;1.60;;;1.50;;
75005;SDS011;63553;51.814;4.600;2023-02-12T03:45:44;1.55;;;1.45;;
75005;SDS011;63553;51.814;4.600;2023-02-12T03:48:27;1.50;;;1.40;;
75005;SDS011;63553;51.814;4.600;2023-02-12T03:50:57;1.50;;;1.40;;
75005;SDS011;63553;51.814;4.600;2023-02-12T03:53:44;1.35;;;1.35;;
75005;SDS011;63553;51.814;4.600;2023-02-12T03:56:11;1.38;;;1.27;;
75005;SDS011;63553;51.814;4.600;2023-02-12T03:58:41;1.95;;;1.52;;
75005;SDS011;63553;51.814;4.600;2023-02-12T04:01:09;1.40;;;1.35;;
75005;SDS011;63553;51.814;4.600;2023-02-12T04:03:35;1.65;;;1.55;;
75005;SDS011;63553;51.814;4.600;2023-02-12T04:06:01;1.40;;;1.30;;
75005;SDS011;63553;51.814;4.600;2023-02-12T04:08:28;1.60;;;1.50;;
75005;SDS011;63553;51.814;4.600;2023-02-12T04:18:57;1.67;;;1.58;;
75005;SDS011;63553;51.814;4.600;2023-02-12T04:27:08;1.60;;;1.50;;
75005;SDS011;63553;51.814;4.600;2023-02-12T04:32:27;1.38;;;1.35;;
75005;SDS011;63553;51.814;4.600;2023-02-12T04:37:35;1.73;;;1.50;;
75005;SDS011;63553;51.814;4.600;2023-02-12T04:40:05;1.98;;;1.65;;
75005;SDS011;63553;51.814;4.600;2023-02-12T04:42:46;1.40;;;1.30;;
75005;SDS011;63553;51.814;4.600;2023-02-12T04:45:14;1.52;;;1.42;;
75005;SDS011;63553;51.814;4.600;2023-02-12T04:47:44;1.30;;;1.30;;
75005;SDS011;63553;51.814;4.600;2023-02-12T04:50:10;1.15;;;1.15;;
75005;SDS011;63553;51.814;4.600;2023-02-12T04:52:36;1.50;;;1.50;;
75005;SDS011;63553;51.814;4.600;2023-02-12T04:55:01;1.60;;;1.50;;
75005;SDS011;63553;51.814;4.600;2023-02-12T04:57:27;1.50;;;1.40;;
75005;SDS011;63553;51.814;4.600;2023-02-12T04:59:52;1.50;;;1.40;;
75005;SDS011;63553;51.814;4.600;2023-02-12T05:02:17;1.40;;;1.30;;
75005;SDS011;63553;51.814;4.600;2023-02-12T05:04:43;1.43;;;1.33;;
75005;SDS011;63553;51.814;4.600;2023-02-12T05:07:09;1.70;;;1.60;;
75005;SDS011;63553;51.814;4.600;2023-02-12T05:09:36;1.23;;;1.20;;
75005;SDS011;63553;51.814;4.600;2023-02-12T05:12:01;1.20;;;1.20;;
75005;SDS011;63553;51.814;4.600;2023-02-12T05:14:26;1.33;;;1.25;;
75005;SDS011;63553;51.814;4.600;2023-02-12T05:16:52;1.40;;;1.30;;
75005;SDS011;63553;51.814;4.600;2023-02-12T05:19:17;1.30;;;1.20;;
75005;SDS011;63553;51.814;4.600;2023-02-12T05:21:42;1.23;;;1.10;;
75005;SDS011;63553;51.814;4.600;2023-02-12T05:24:08;1.10;;;1.10;;
75005;SDS011;63553;51.814;4.600;2023-02-12T05:26:33;1.20;;;1.20;;
75005;SDS011;63553;51.814;4.600;2023-02-12T05:28:59;1.40;;;1.30;;
75005;SDS011;63553;51.814;4.600;2023-02-12T05:31:24;1.45;;;1.35;;
75005;SDS011;63553;51.814;4.600;2023-02-12T05:33:50;1.33;;;1.30;;
75005;SDS011;63553;51.814;4.600;2023-02-12T05:36:17;1.23;;;1.23;;
75005;SDS011;63553;51.814;4.600;2023-02-12T05:38:47;1.30;;;1.30;;
75005;SDS011;63553;51.814;4.600;2023-02-12T05:41:18;1.15;;;1.15;;
75005;SDS011;63553;51.814;4.600;2023-02-12T05:43:45;1.10;;;1.10;;
75005;SDS011;63553;51.814;4.600;2023-02-12T05:46:11;5.57;;;1.27;;
75005;SDS011;63553;51.814;4.600;2023-02-12T05:48:37;1.10;;;1.10;;
75005;SDS011;63553;51.814;4.600;2023-02-12T05:51:07;7.22;;;1.40;;
75005;SDS011;63553;51.814;4.600;2023-02-12T05:53:35;24.10;;;1.83;;
75005;SDS011;63553;51.814;4.600;2023-02-12T05:56:12;8.48;;;1.45;;
75005;SDS011;63553;51.814;4.600;2023-02-12T05:58:38;6.32;;;1.20;;
75005;SDS011;63553;51.814;4.600;2023-02-12T06:01:08;1.90;;;1.02;;
75005;SDS011;63553;51.814;4.600;2023-02-12T06:03:44;3.00;;;1.63;;
75005;SDS011;63553;51.814;4.600;2023-02-12T06:06:10;2.40;;;1.30;;
75005;SDS011;63553;51.814;4.600;2023-02-12T06:08:35;1.13;;;1.13;;
75005;SDS011;63553;51.814;4.600;2023-02-12T06:11:02;1.30;;;1.00;;
75005;SDS011;63553;51.814;4.600;2023-02-12T06:13:29;1.52;;;0.80;;
75005;SDS011;63553;51.814;4.600;2023-02-12T06:15:55;1.13;;;1.10;;
75005;SDS011;63553;51.814;4.600;2023-02-12T06:18:20;1.25;;;1.08;;
75005;SDS011;63553;51.814;4.600;2023-02-12T06:20:46;2.08;;;1.10;;
75005;SDS011;63553;51.814;4.600;2023-02-12T06:23:12;0.90;;;0.90;;
75005;SDS011;63553;51.814;4.600;2023-02-12T06:25:37;4.40;;;0.93;;
75005;SDS011;63553;51.814;4.600;2023-02-12T06:28:02;10.80;;;1.83;;
75005;SDS011;63553;51.814;4.600;2023-02-12T06:30:28;1.05;;;1.00;;
75005;SDS011;63553;51.814;4.600;2023-02-12T06:32:55;3.33;;;0.90;;
75005;SDS011;63553;51.814;4.600;2023-02-12T06:35:20;0.90;;;0.90;;
75005;SDS011;63553;51.814;4.600;2023-02-12T06:37:45;1.13;;;1.10;;
75005;SDS011;63553;51.814;4.600;2023-02-12T06:40:11;1.07;;;1.07;;
75005;SDS011;63553;51.814;4.600;2023-02-12T06:42:36;1.10;;;1.10;;
75005;SDS011;63553;51.814;4.600;2023-02-12T06:45:02;1.07;;;1.07;;
75005;SDS011;63553;51.814;4.600;2023-02-12T06:47:27;1.13;;;1.13;;
75005;SDS011;63553;51.814;4.600;2023-02-12T06:49:52;1.40;;;0.90;;
75005;SDS011;63553;51.814;4.600;2023-02-12T06:52:18;0.83;;;0.83;;
75005;SDS011;63553;51.814;4.600;2023-02-12T06:54:45;2.70;;;0.95;;
75005;SDS011;63553;51.814;4.600;2023-02-12T06:57:10;0.85;;;0.85;;
75005;SDS011;63553;51.814;4.600;2023-02-12T06:59:35;0.93;;;0.90;;
75005;SDS011;63553;51.814;4.600;2023-02-12T07:02:01;0.90;;;0.90;;
75005;SDS011;63553;51.814;4.600;2023-02-12T07:04:26;0.90;;;0.90;;
75005;SDS011;63553;51.814;4.600;2023-02-12T07:06:51;1.10;;;1.10;;
75005;SDS011;63553;51.814;4.600;2023-02-12T07:09:17;0.90;;;0.90;;
75005;SDS011;63553;51.814;4.600;2023-02-12T07:11:42;0.95;;;0.95;;
75005;SDS011;63553;51.814;4.600;2023-02-12T07:14:11;1.10;;;1.00;;
75005;SDS011;63553;51.814;4.600;2023-02-12T07:16:38;1.00;;;1.00;;
75005;SDS011;63553;51.814;4.600;2023-02-12T07:19:03;0.80;;;0.80;;
75005;SDS011;63553;51.814;4.600;2023-02-12T07:21:29;0.90;;;0.90;;
75005;SDS011;63553;51.814;4.600;2023-02-12T07:23:55;1.05;;;1.05;;
75005;SDS011;63553;51.814;4.600;2023-02-12T07:26:21;0.90;;;0.90;;
75005;SDS011;63553;51.814;4.600;2023-02-12T07:28:47;0.90;;;0.90;;
75005;SDS011;63553;51.814;4.600;2023-02-12T07:31:15;1.00;;;1.00;;
75005;SDS011;63553;51.814;4.600;2023-02-12T07:33:42;0.82;;;0.82;;
75005;SDS011;63553;51.814;4.600;2023-02-12T07:36:09;1.00;;;1.00;;
75005;SDS011;63553;51.814;4.600;2023-02-12T07:38:36;0.70;;;0.70;;
75005;SDS011;63553;51.814;4.600;2023-02-12T07:41:11;0.80;;;0.80;;
75005;SDS011;63553;51.814;4.600;2023-02-12T07:43:39;0.90;;;0.90;;
75005;SDS011;63553;51.814;4.600;2023-02-12T07:46:10;0.82;;;0.82;;
75005;SDS011;63553;51.814;4.600;2023-02-12T07:48:37;0.70;;;0.70;;
75005;SDS011;63553;51.814;4.600;2023-02-12T07:51:07;1.55;;;0.85;;
75005;SDS011;63553;51.814;4.600;2023-02-12T07:53:34;12.60;;;1.10;;
75005;SDS011;63553;51.814;4.600;2023-02-12T07:56:13;1.00;;;1.00;;
75005;SDS011;63553;51.814;4.600;2023-02-12T07:58:39;3.65;;;0.80;;
75005;SDS011;63553;51.814;4.600;2023-02-12T08:01:12;1.05;;;1.05;;
75005;SDS011;63553;51.814;4.600;2023-02-12T08:03:39;9.88;;;1.20;;
75005;SDS011;63553;51.814;4.600;2023-02-12T08:06:06;0.90;;;0.90;;
75005;SDS011;63553;51.814;4.600;2023-02-12T08:11:02;0.85;;;0.85;;
75005;SDS011;63553;51.814;4.600;2023-02-12T08:13:30;1.35;;;0.90;;
75005;SDS011;63553;51.814;4.600;2023-02-12T08:16:02;1.00;;;1.00;;
75005;SDS011;63553;51.814;4.600;2023-02-12T08:18:30;1.00;;;1.00;;
75005;SDS011;63553;51.814;4.600;2023-02-12T08:21:00;1.63;;;1.00;;
75005;SDS011;63553;51.814;4.600;2023-02-12T08:26:12;0.85;;;0.80;;
75005;SDS011;63553;51.814;4.600;2023-02-12T08:28:43;0.88;;;0.88;;
75005;SDS011;63553;51.814;4.600;2023-02-12T08:31:11;0.90;;;0.90;;
75005;SDS011;63553;51.814;4.600;2023-02-12T08:33:38;1.00;;;1.00;;
75005;SDS011;63553;51.814;4.600;2023-02-12T08:36:05;0.80;;;0.80;;
75005;SDS011;63553;51.814;4.600;2023-02-12T08:38:35;0.80;;;0.80;;
75005;SDS011;63553;51.814;4.600;2023-02-12T08:41:04;1.65;;;0.98;;
75005;SDS011;63553;51.814;4.600;2023-02-12T08:43:37;1.10;;;1.10;;
75005;SDS011;63553;51.814;4.600;2023-02-12T08:46:04;1.35;;;0.88;;
75005;SDS011;63553;51.814;4.600;2023-02-12T08:48:34;0.90;;;0.90;;
75005;SDS011;63553;51.814;4.600;2023-02-12T08:51:03;0.88;;;0.88;;
75005;SDS011;63553;51.814;4.600;2023-02-12T08:53:33;1.15;;;0.90;;
75005;SDS011;63553;51.814;4.600;2023-02-12T08:55:59;1.00;;;0.90;;
75005;SDS011;63553;51.814;4.600;2023-02-12T08:58:24;1.15;;;0.90;;
75005;SDS011;63553;51.814;4.600;2023-02-12T09:00:50;2.28;;;2.08;;
75005;SDS011;63553;51.814;4.600;2023-02-12T09:03:15;11.95;;;4.82;;
75005;SDS011;63553;51.814;4.600;2023-02-12T09:05:41;97.40;;;12.70;;
75005;SDS011;63553;51.814;4.600;2023-02-12T09:08:06;34.30;;;8.07;;
75005;SDS011;63553;51.814;4.600;2023-02-12T09:10:32;50.15;;;14.13;;
75005;SDS011;63553;51.814;4.600;2023-02-12T09:12:59;14.40;;;7.55;;
75005;SDS011;63553;51.814;4.600;2023-02-12T09:15:24;11.37;;;5.77;;
75005;SDS011;63553;51.814;4.600;2023-02-12T09:17:49;7.07;;;5.30;;
75005;SDS011;63553;51.814;4.600;2023-02-12T09:20:14;8.47;;;5.30;;
75005;SDS011;63553;51.814;4.600;2023-02-12T09:22:40;161.45;;;16.20;;
75005;SDS011;63553;51.814;4.600;2023-02-12T09:25:05;65.40;;;10.00;;
75005;SDS011;63553;51.814;4.600;2023-02-12T09:27:31;153.00;;;22.75;;
75005;SDS011;63553;51.814;4.600;2023-02-12T09:29:56;19.33;;;8.68;;
75005;SDS011;63553;51.814;4.600;2023-02-12T09:32:21;9.40;;;5.30;;
75005;SDS011;63553;51.814;4.600;2023-02-12T09:34:47;6.47;;;4.85;;
75005;SDS011;63553;51.814;4.600;2023-02-12T09:37:12;7.73;;;5.80;;
75005;SDS011;63553;51.814;4.600;2023-02-12T09:39:37;8.47;;;5.47;;
75005;SDS011;63553;51.814;4.600;2023-02-12T09:45:19;12.77;;;5.82;;
75005;SDS011;63553;51.814;4.600;2023-02-12T09:48:09;9.40;;;5.30;;
75005;SDS011;63553;51.814;4.600;2023-02-12T09:50:53;9.32;;;5.78;;
75005;SDS011;63553;51.814;4.600;2023-02-12T09:53:31;10.55;;;6.47;;
75005;SDS011;63553;51.814;4.600;2023-02-12T09:56:05;7.28;;;5.95;;
75005;SDS011;63553;51.814;4.600;2023-02-12T09:59:20;8.50;;;5.90;;
75005;SDS011;63553;51.814;4.600;2023-02-12T10:01:27;8.20;;;5.97;;
75005;SDS011;63553;51.814;4.600;2023-02-12T10:03:53;8.30;;;6.22;;
75005;SDS011;63553;51.814;4.600;2023-02-12T10:06:29;8.27;;;6.50;;
75005;SDS011;63553;51.814;4.600;2023-02-12T10:17:27;8.43;;;5.57;;
75005;SDS011;63553;51.814;4.600;2023-02-12T10:25:48;8.63;;;5.70;;
75005;SDS011;63553;51.814;4.600;2023-02-12T10:28:23;9.30;;;5.85;;
75005;SDS011;63553;51.814;4.600;2023-02-12T10:30:54;8.82;;;5.57;;
75005;SDS011;63553;51.814;4.600;2023-02-12T10:33:29;7.53;;;5.05;;
75005;SDS011;63553;51.814;4.600;2023-02-12T10:38:30;6.78;;;4.75;;
75005;SDS011;63553;51.814;4.600;2023-02-12T10:41:00;8.80;;;6.38;;
75005;SDS011;63553;51.814;4.600;2023-02-12T10:43:25;6.35;;;3.63;;
75005;SDS011;63553;51.814;4.600;2023-02-12T10:45:51;9.38;;;3.03;;
75005;SDS011;63553;51.814;4.600;2023-02-12T10:48:21;3.78;;;2.90;;
75005;SDS011;63553;51.814;4.600;2023-02-12T10:50:51;6.25;;;3.03;;
75005;SDS011;63553;51.814;4.600;2023-02-12T10:53:21;3.83;;;2.72;;
75005;SDS011;63553;51.814;4.600;2023-02-12T10:55:48;4.03;;;3.28;;
75005;SDS011;63553;51.814;4.600;2023-02-12T10:58:18;5.20;;;2.70;;
75005;SDS011;63553;51.814;4.600;2023-02-12T11:00:46;3.10;;;2.30;;
75005;SDS011;63553;51.814;4.600;2023-02-12T11:03:21;2.75;;;2.40;;
75005;SDS011;63553;51.814;4.600;2023-02-12T11:05:51;6.00;;;2.67;;
75005;SDS011;63553;51.814;4.600;2023-02-12T11:11:03;4.57;;;2.60;;
75005;SDS011;63553;51.814;4.600;2023-02-12T11:13:30;3.00;;;2.13;;
75005;SDS011;63553;51.814;4.600;2023-02-12T11:15:56;2.75;;;2.40;;
75005;SDS011;63553;51.814;4.600;2023-02-12T11:20:56;5.45;;;2.45;;
75005;SDS011;63553;51.814;4.600;2023-02-12T11:23:31;8.07;;;2.42;;
75005;SDS011;63553;51.814;4.600;2023-02-12T11:26:00;4.93;;;2.50;;
75005;SDS011;63553;51.814;4.600;2023-02-12T11:28:30;4.68;;;2.58;;
75005;SDS011;63553;51.814;4.600;2023-02-12T11:30:59;3.33;;;2.42;;
75005;SDS011;63553;51.814;4.600;2023-02-12T11:33:37;4.00;;;2.30;;
75005;SDS011;63553;51.814;4.600;2023-02-12T11:38:50;6.57;;;2.50;;
75005;SDS011;63553;51.814;4.600;2023-02-12T11:41:38;2.20;;;2.03;;
75005;SDS011;63553;51.814;4.600;2023-02-12T11:44:38;2.40;;;2.00;;
75005;SDS011;63553;51.814;4.600;2023-02-12T11:47:03;3.65;;;2.67;;
75005;SDS011;63553;51.814;4.600;2023-02-12T11:49:47;4.22;;;2.00;;
75005;SDS011;63553;51.814;4.600;2023-02-12T11:52:20;2.42;;;1.95;;
75005;SDS011;63553;51.814;4.600;2023-02-12T11:54:47;2.65;;;2.30;;
75005;SDS011;63553;51.814;4.600;2023-02-12T12:00:31;2.40;;;2.20;;
75005;SDS011;63553;51.814;4.600;2023-02-12T12:05:50;2.78;;;2.10;;
75005;SDS011;63553;51.814;4.600;2023-02-12T12:13:35;2.85;;;1.90;;
75005;SDS011;63553;51.814;4.600;2023-02-12T12:16:09;1.98;;;1.88;;
75005;SDS011;63553;51.814;4.600;2023-02-12T12:18:59;3.17;;;1.90;;
75005;SDS011;63553;51.814;4.600;2023-02-12T12:22:13;3.15;;;1.90;;
75005;SDS011;63553;51.814;4.600;2023-02-12T13:14:48;1.65;;;1.35;;
75005;SDS011;63553;51.814;4.600;2023-02-12T13:25:30;2.40;;;2.20;;
75005;SDS011;63553;51.814;4.600;2023-02-12T13:28:04;3.28;;;1.67;;
75005;SDS011;63553;51.814;4.600;2023-02-12T13:30:42;2.83;;;1.65;;
75005;SDS011;63553;51.814;4.600;2023-02-12T13:33:15;3.90;;;1.58;;
75005;SDS011;63553;51.814;4.600;2023-02-12T13:35:47;2.20;;;1.90;;
75005;SDS011;63553;51.814;4.600;2023-02-12T13:38:23;1.83;;;1.60;;
75005;SDS011;63553;51.814;4.600;2023-02-12T13:40:53;1.80;;;1.60;;
75005;SDS011;63553;51.814;4.600;2023-02-12T13:46:19;1.42;;;1.33;;
75005;SDS011;63553;51.814;4.600;2023-02-12T13:56:53;2.25;;;1.83;;
75005;SDS011;63553;51.814;4.600;2023-02-12T14:04:25;1.67;;;1.57;;
75005;SDS011;63553;51.814;4.600;2023-02-12T14:09:26;1.50;;;1.40;;
75005;SDS011;63553;51.814;4.600;2023-02-12T14:12:06;1.50;;;1.40;;
75005;SDS011;63553;51.814;4.600;2023-02-12T14:14:43;1.45;;;1.35;;
75005;SDS011;63553;51.814;4.600;2023-02-12T14:19:53;2.10;;;1.40;;
75005;SDS011;63553;51.814;4.600;2023-02-12T14:24:56;1.60;;;1.50;;
75005;SDS011;63553;51.814;4.600;2023-02-12T14:32:56;1.60;;;1.50;;
75005;SDS011;63553;51.814;4.600;2023-02-12T14:35:34;1.52;;;1.42;;
75005;SDS011;63553;51.814;4.600;2023-02-12T14:38:02;1.85;;;1.60;;
75005;SDS011;63553;51.814;4.600;2023-02-12T14:40:48;1.40;;;1.40;;
75005;SDS011;63553;51.814;4.600;2023-02-12T14:43:34;3.58;;;1.60;;
75005;SDS011;63553;51.814;4.600;2023-02-12T14:51:50;1.20;;;1.20;;
75005;SDS011;63553;51.814;4.600;2023-02-12T14:56:52;1.60;;;1.50;;
75005;SDS011;63553;51.814;4.600;2023-02-12T14:59:22;1.60;;;1.50;;
75005;SDS011;63553;51.814;4.600;2023-02-12T15:01:49;1.40;;;1.30;;
75005;SDS011;63553;51.814;4.600;2023-02-12T15:04:26;1.95;;;1.85;;
75005;SDS011;63553;51.814;4.600;2023-02-12T15:06:56;2.00;;;1.65;;
75005;SDS011;63553;51.814;4.600;2023-02-12T15:09:32;1.70;;;1.60;;
75005;SDS011;63553;51.814;4.600;2023-02-12T15:18:02;1.80;;;1.70;;
75005;SDS011;63553;51.814;4.600;2023-02-12T15:23:40;1.60;;;1.50;;
75005;SDS011;63553;51.814;4.600;2023-02-12T15:26:11;1.30;;;1.30;;
75005;SDS011;63553;51.814;4.600;2023-02-12T15:28:40;2.10;;;1.98;;
75005;SDS011;63553;51.814;4.600;2023-02-12T15:31:06;1.98;;;1.88;;
75005;SDS011;63553;51.814;4.600;2023-02-12T15:33:35;2.42;;;1.80;;
75005;SDS011;63553;51.814;4.600;2023-02-12T15:36:05;3.65;;;1.92;;
75005;SDS011;63553;51.814;4.600;2023-02-12T15:38:35;1.55;;;1.52;;
75005;SDS011;63553;51.814;4.600;2023-02-12T15:41:02;3.58;;;1.98;;
75005;SDS011;63553;51.814;4.600;2023-02-12T15:43:30;2.22;;;1.75;;
75005;SDS011;63553;51.814;4.600;2023-02-12T15:46:00;2.85;;;1.88;;
75005;SDS011;63553;51.814;4.600;2023-02-12T15:48:34;2.00;;;1.90;;
75005;SDS011;63553;51.814;4.600;2023-02-12T15:53:51;1.70;;;1.60;;
75005;SDS011;63553;51.814;4.600;2023-02-12T15:56:18;2.28;;;1.80;;
75005;SDS011;63553;51.814;4.600;2023-02-12T15:58:51;2.05;;;1.95;;
75005;SDS011;63553;51.814;4.600;2023-02-12T16:01:22;4.18;;;2.00;;
75005;SDS011;63553;51.814;4.600;2023-02-12T16:03:50;1.83;;;1.73;;
75005;SDS011;63553;51.814;4.600;2023-02-12T16:06:17;1.90;;;1.80;;
75005;SDS011;63553;51.814;4.600;2023-02-12T16:08:45;2.10;;;2.00;;
75005;SDS011;63553;51.814;4.600;2023-02-12T16:11:16;2.00;;;1.90;;
75005;SDS011;63553;51.814;4.600;2023-02-12T16:18:37;3.07;;;2.00;;
75005;SDS011;63553;51.814;4.600;2023-02-12T16:21:20;2.20;;;2.00;;
75005;SDS011;63553;51.814;4.600;2023-02-12T16:23:48;2.20;;;2.00;;
75005;SDS011;63553;51.814;4.600;2023-02-12T16:26:19;2.25;;;2.05;;
75005;SDS011;63553;51.814;4.600;2023-02-12T16:28:47;2.30;;;1.95;;
75005;SDS011;63553;51.814;4.600;2023-02-12T16:31:15;2.50;;;2.30;;
75005;SDS011;63553;51.814;4.600;2023-02-12T16:33:42;2.17;;;2.03;;
75005;SDS011;63553;51.814;4.600;2023-02-12T16:38:44;2.03;;;1.85;;
75005;SDS011;63553;51.814;4.600;2023-02-12T16:43:45;2.33;;;2.15;;
75005;SDS011;63553;51.814;4.600;2023-02-12T16:46:11;2.47;;;2.30;;
75005;SDS011;63553;51.814;4.600;2023-02-12T16:51:05;3.50;;;3.20;;
75005;SDS011;63553;51.814;4.600;2023-02-12T16:55:57;2.47;;;2.28;;
75005;SDS011;63553;51.814;4.600;2023-02-12T16:58:24;2.63;;;2.08;;
75005;SDS011;63553;51.814;4.600;2023-02-12T17:00:52;2.50;;;2.30;;
75005;SDS011;63553;51.814;4.600;2023-02-12T17:03:19;2.53;;;2.33;;
75005;SDS011;63553;51.814;4.600;2023-02-12T17:05:45;2.75;;;2.30;;
75005;SDS011;63553;51.814;4.600;2023-02-12T17:08:15;2.55;;;2.35;;
75005;SDS011;63553;51.814;4.600;2023-02-12T17:10:42;2.63;;;2.42;;
75005;SDS011;63553;51.814;4.600;2023-02-12T17:13:12;3.08;;;2.42;;
75005;SDS011;63553;51.814;4.600;2023-02-12T17:15:54;4.45;;;2.60;;
75005;SDS011;63553;51.814;4.600;2023-02-12T17:18:22;4.78;;;2.80;;
75005;SDS011;63553;51.814;4.600;2023-02-12T17:20:50;3.15;;;2.75;;
75005;SDS011;63553;51.814;4.600;2023-02-12T17:23:18;3.60;;;2.50;;
75005;SDS011;63553;51.814;4.600;2023-02-12T17:25:45;4.30;;;2.53;;
75005;SDS011;63553;51.814;4.600;2023-02-12T17:28:10;2.80;;;2.60;;
75005;SDS011;63553;51.814;4.600;2023-02-12T17:30:35;4.50;;;2.60;;
75005;SDS011;63553;51.814;4.600;2023-02-12T17:33:01;3.63;;;2.42;;
75005;SDS011;63553;51.814;4.600;2023-02-12T17:35:27;5.30;;;4.13;;
75005;SDS011;63553;51.814;4.600;2023-02-12T17:37:52;4.00;;;2.93;;
75005;SDS011;63553;51.814;4.600;2023-02-12T17:40:17;2.70;;;2.50;;
75005;SDS011;63553;51.814;4.600;2023-02-12T17:42:43;3.35;;;2.83;;
75005;SDS011;63553;51.814;4.600;2023-02-12T17:45:08;4.43;;;2.88;;
75005;SDS011;63553;51.814;4.600;2023-02-12T17:47:34;3.33;;;2.88;;
75005;SDS011;63553;51.814;4.600;2023-02-12T17:50:05;3.75;;;2.80;;
75005;SDS011;63553;51.814;4.600;2023-02-12T17:52:38;3.20;;;2.90;;
75005;SDS011;63553;51.814;4.600;2023-02-12T17:55:03;3.55;;;3.15;;
75005;SDS011;63553;51.814;4.600;2023-02-12T17:57:30;3.30;;;3.00;;
75005;SDS011;63553;51.814;4.600;2023-02-12T17:59:56;4.03;;;2.83;;
75005;SDS011;63553;51.814;4.600;2023-02-12T18:02:22;3.80;;;3.00;;
75005;SDS011;63553;51.814;4.600;2023-02-12T18:04:47;2.60;;;2.40;;
75005;SDS011;63553;51.814;4.600;2023-02-12T18:07:13;3.90;;;2.83;;
75005;SDS011;63553;51.814;4.600;2023-02-12T18:09:38;3.35;;;2.83;;
75005;SDS011;63553;51.814;4.600;2023-02-12T18:12:04;3.17;;;2.53;;
75005;SDS011;63553;51.814;4.600;2023-02-12T18:14:29;3.15;;;2.83;;
75005;SDS011;63553;51.814;4.600;2023-02-12T18:16:55;4.05;;;2.92;;
75005;SDS011;63553;51.814;4.600;2023-02-12T18:19:20;3.03;;;2.83;;
75005;SDS011;63553;51.814;4.600;2023-02-12T18:21:45;3.17;;;2.92;;
75005;SDS011;63553;51.814;4.600;2023-02-12T18:24:11;3.60;;;3.30;;
75005;SDS011;63553;51.814;4.600;2023-02-12T18:26:37;3.22;;;2.90;;
75005;SDS011;63553;51.814;4.600;2023-02-12T18:29:02;3.78;;;3.33;;
75005;SDS011;63553;51.814;4.600;2023-02-12T18:31:28;3.63;;;2.90;;
75005;SDS011;63553;51.814;4.600;2023-02-12T18:33:53;4.05;;;3.45;;
75005;SDS011;63553;51.814;4.600;2023-02-12T18:36:19;5.57;;;3.43;;
75005;SDS011;63553;51.814;4.600;2023-02-12T18:38:47;4.10;;;3.10;;
75005;SDS011;63553;51.814;4.600;2023-02-12T18:41:14;3.88;;;3.38;;